createdAt,value
2023-12-01T00:00:16.115Z,14.90
2023-12-01T00:06:58.831Z,12.88
2023-12-01T00:13:41.387Z,13.90
2023-12-01T00:20:23.541Z,14.48
2023-12-01T00:27:05.755Z,13.48
2023-12-01T00:33:48.467Z,13.40
2023-12-01T00:40:31.373Z,13.65
2023-12-01T00:47:14.015Z,12.98
2023-12-01T00:53:56.477Z,12.95
2023-12-01T01:00:38.970Z,13.50
2023-12-01T01:07:22.388Z,14.35
2023-12-01T01:14:04.710Z,14.68
2023-12-01T01:20:47.522Z,16.23
2023-12-01T01:27:29.841Z,14.85
2023-12-01T01:34:12.180Z,18.02
2023-12-01T01:40:54.530Z,16.30
2023-12-01T01:47:37.579Z,16.13
2023-12-01T01:54:26.530Z,16.67
2023-12-01T02:01:09.189Z,17.48
2023-12-01T02:07:51.645Z,16.15
2023-12-01T02:14:33.961Z,16.58
2023-12-01T02:21:16.227Z,16.30
2023-12-01T02:28:01.889Z,15.13
2023-12-01T02:34:46.226Z,14.45
2023-12-01T02:41:29.120Z,15.32
2023-12-01T02:48:11.718Z,16.23
2023-12-01T02:54:54.084Z,16.15
2023-12-01T03:01:36.696Z,16.80
2023-12-01T03:08:19.206Z,16.15
2023-12-01T03:15:06.172Z,16.80
2023-12-01T03:21:52.097Z,16.17
2023-12-01T03:28:34.899Z,15.18
2023-12-01T03:35:19.105Z,14.55
2023-12-01T03:42:01.502Z,14.40
2023-12-01T03:48:43.802Z,15.55
2023-12-01T03:55:26.625Z,15.73
2023-12-01T04:02:09.189Z,16.30
2023-12-01T04:08:54.379Z,17.30
2023-12-01T04:15:39.811Z,18.02
2023-12-01T04:22:22.287Z,18.88
2023-12-01T04:29:04.779Z,18.92
2023-12-01T04:35:47.020Z,18.52
2023-12-01T04:42:29.280Z,18.50
2023-12-01T04:49:12.002Z,19.65
2023-12-01T04:55:54.412Z,19.30
2023-12-01T05:02:36.770Z,19.33
2023-12-01T05:09:22.027Z,18.35
2023-12-01T05:16:05.708Z,17.52
2023-12-01T05:23:01.569Z,17.23
2023-12-01T05:29:44.091Z,16.20
2023-12-01T05:36:26.839Z,16.60
2023-12-01T05:43:09.542Z,16.85
2023-12-01T05:49:52.026Z,16.88
2023-12-01T05:56:34.637Z,17.10
2023-12-01T06:03:19.111Z,16.02
2023-12-01T06:10:01.673Z,16.13
2023-12-01T06:16:45.560Z,17.35
2023-12-01T06:23:27.966Z,17.90
2023-12-01T06:30:14.208Z,15.82
2023-12-01T06:36:59.719Z,14.77
2023-12-01T06:43:42.634Z,15.88
2023-12-01T06:50:25.333Z,14.63
2023-12-01T06:57:07.723Z,15.00
2023-12-01T07:03:50.116Z,15.18
2023-12-01T07:10:35.214Z,14.55
2023-12-01T07:17:17.557Z,14.77
2023-12-01T07:24:03.167Z,15.73
2023-12-01T07:30:45.612Z,15.30
2023-12-01T07:37:28.043Z,14.77
2023-12-01T07:44:10.606Z,15.63
2023-12-01T07:50:53.426Z,15.48
2023-12-01T07:57:36.717Z,16.20
2023-12-01T08:04:19.752Z,15.13
2023-12-01T08:11:04.765Z,15.65
2023-12-01T08:17:47.403Z,16.25
2023-12-01T08:24:32.477Z,17.85
2023-12-01T08:31:17.293Z,15.20
2023-12-01T08:37:59.805Z,15.55
2023-12-01T08:44:43.315Z,15.20
2023-12-01T08:51:26.451Z,14.95
2023-12-01T08:58:08.816Z,14.70
2023-12-01T09:04:51.264Z,14.60
2023-12-01T09:11:33.927Z,16.05
2023-12-01T09:18:16.431Z,16.13
2023-12-01T09:24:58.878Z,15.63
2023-12-01T09:31:48.599Z,15.35
2023-12-01T09:38:31.195Z,15.38
2023-12-01T09:45:19.270Z,16.30
2023-12-01T09:52:03.337Z,15.57
2023-12-01T09:58:46.449Z,15.00
2023-12-01T10:05:34.750Z,17.35
2023-12-01T10:12:16.959Z,15.25
2023-12-01T10:19:01.651Z,14.95
2023-12-01T10:25:51.117Z,15.18
2023-12-01T10:32:33.390Z,17.00
2023-12-01T10:39:22.851Z,16.92
2023-12-01T10:46:06.458Z,16.83
2023-12-01T10:52:51.610Z,20.65
2023-12-01T10:59:36.004Z,17.83
2023-12-01T11:06:50.034Z,18.85
2023-12-01T11:13:55.582Z,19.42
2023-12-01T11:20:47.310Z,20.30
2023-12-01T11:27:32.309Z,19.38
2023-12-01T11:34:14.928Z,20.15
2023-12-01T11:40:57.885Z,20.70
2023-12-01T11:47:40.452Z,21.02
2023-12-01T11:54:24.128Z,21.60
2023-12-01T12:01:06.499Z,22.02
2023-12-01T12:07:49.246Z,20.73
2023-12-01T12:14:31.896Z,22.52
2023-12-01T12:21:14.430Z,23.70
2023-12-01T12:27:57.070Z,21.45
2023-12-01T12:34:40.852Z,22.02
2023-12-01T12:41:27.033Z,22.42
2023-12-01T12:48:10.180Z,20.20
2023-12-01T12:54:52.566Z,21.58
2023-12-01T13:01:35.607Z,22.95
2023-12-01T13:08:18.066Z,23.13
2023-12-01T13:15:00.388Z,21.05
2023-12-01T13:21:42.909Z,20.10
2023-12-01T13:28:26.261Z,23.60
2023-12-01T13:35:08.807Z,21.30
2023-12-01T13:41:51.282Z,23.83
2023-12-01T13:48:34.017Z,24.42
2023-12-01T13:55:17.372Z,24.88
2023-12-01T14:01:59.787Z,24.50
2023-12-01T14:08:42.403Z,23.58
2023-12-01T14:15:25.016Z,25.67
2023-12-01T14:22:07.280Z,23.98
2023-12-01T14:28:50.066Z,26.17
2023-12-01T14:35:32.325Z,24.65
2023-12-01T14:42:15.029Z,26.10
2023-12-01T14:48:57.890Z,26.75
2023-12-01T14:55:41.068Z,27.40
2023-12-01T15:02:24.382Z,27.70
2023-12-01T15:09:07.037Z,27.45
2023-12-01T15:15:49.624Z,26.67
2023-12-01T15:22:31.934Z,27.38
2023-12-01T15:29:15.062Z,27.58
2023-12-01T15:35:57.367Z,26.55
2023-12-01T15:42:43.410Z,25.52
2023-12-01T15:49:27.812Z,23.33
2023-12-01T15:56:10.413Z,27.05
2023-12-01T16:02:52.735Z,24.75
2023-12-01T16:09:35.252Z,25.17
2023-12-01T16:16:17.520Z,24.80
2023-12-01T16:22:59.854Z,24.58
2023-12-01T16:29:42.341Z,25.00
2023-12-01T16:36:31.807Z,26.40
2023-12-01T16:43:16.128Z,28.50
2023-12-01T16:49:58.786Z,26.55
2023-12-01T16:56:41.185Z,27.15
2023-12-01T17:03:24.069Z,27.67
2023-12-01T17:10:08.403Z,28.00
2023-12-01T17:16:50.800Z,25.48
2023-12-01T17:23:36.735Z,27.42
2023-12-01T17:30:19.217Z,24.20
2023-12-01T17:37:01.787Z,24.67
2023-12-01T17:43:44.114Z,22.58
2023-12-01T17:50:26.686Z,24.98
2023-12-01T17:57:10.272Z,24.92
2023-12-01T18:03:53.906Z,23.65
2023-12-01T18:10:37.019Z,24.27
2023-12-01T18:17:20.445Z,24.65
2023-12-01T18:24:03.107Z,24.15
2023-12-01T18:30:45.401Z,23.88
2023-12-01T18:37:27.663Z,22.98
2023-12-01T18:44:10.227Z,22.55
2023-12-01T18:50:53.441Z,22.40
2023-12-01T18:57:35.865Z,20.65
2023-12-01T19:04:18.403Z,20.25
2023-12-01T19:11:00.674Z,19.90
2023-12-01T19:17:43.121Z,41.80
2023-12-01T19:24:25.493Z,22.15
2023-12-01T19:31:07.792Z,23.33
2023-12-01T19:37:52.390Z,22.38
2023-12-01T19:44:36.122Z,23.88
2023-12-01T19:51:18.920Z,23.30
2023-12-01T19:58:01.709Z,20.15
2023-12-01T20:04:44.830Z,20.38
2023-12-01T20:11:27.158Z,22.65
2023-12-01T20:18:10.712Z,21.23
2023-12-01T20:24:53.253Z,20.73
2023-12-01T20:31:38.956Z,18.35
2023-12-01T20:38:21.270Z,18.35
2023-12-01T20:45:04.395Z,19.92
2023-12-01T20:51:50.962Z,19.75
2023-12-01T20:58:33.341Z,19.25
2023-12-01T21:05:15.894Z,19.23
2023-12-01T21:12:00.478Z,17.10
2023-12-01T21:18:43.029Z,18.45
2023-12-01T21:25:25.380Z,19.60
2023-12-01T21:32:07.676Z,19.27
2023-12-01T21:39:15.297Z,18.05
2023-12-01T21:45:59.741Z,18.58
2023-12-01T21:52:42.214Z,17.38
2023-12-01T21:59:24.667Z,18.65
2023-12-01T22:06:12.618Z,17.20
2023-12-01T22:12:55.056Z,17.73
2023-12-01T22:19:39.573Z,17.20
2023-12-01T22:26:22.144Z,17.10
2023-12-01T22:33:05.007Z,17.90
2023-12-01T22:39:47.540Z,17.55
2023-12-01T22:46:29.939Z,19.80
2023-12-01T22:53:13.831Z,18.23
2023-12-01T22:59:56.614Z,18.20
2023-12-01T23:06:39.127Z,18.25
2023-12-01T23:13:22.215Z,18.75
2023-12-01T23:20:06.881Z,18.85
2023-12-01T23:26:49.253Z,38.53
2023-12-01T23:33:31.817Z,16.67
2023-12-01T23:40:14.468Z,18.02
2023-12-01T23:46:56.860Z,17.63
2023-12-01T23:53:39.364Z,17.85
